sensor_id;sensor_type;location;lat;lon;timestamp;P1;durP1;ratioP1;P2;durP2;ratioP2
74808;SDS011;63338;39.544;2.596;2023-03-31T00:00:57;36.75;;;12.23;;
74808;SDS011;63338;39.544;2.596;2023-03-31T00:03:25;40.58;;;12.13;;
74808;SDS011;63338;39.544;2.596;2023-03-31T00:05:56;37.63;;;11.13;;
74808;SDS011;63338;39.544;2.596;2023-03-31T00:10:49;28.08;;;9.48;;
74808;SDS011;63338;39.544;2.596;2023-03-31T00:13:16;33.47;;;9.55;;
74808;SDS011;63338;39.544;2.596;2023-03-31T00:15:42;31.35;;;8.82;;
74808;SDS011;63338;39.544;2.596;2023-03-31T00:18:08;27.27;;;8.65;;
74808;SDS011;63338;39.544;2.596;2023-03-31T00:20:34;30.88;;;9.25;;
74808;SDS011;63338;39.544;2.596;2023-03-31T00:23:02;42.65;;;10.23;;
74808;SDS011;63338;39.544;2.596;2023-03-31T00:25:33;36.40;;;9.57;;
74808;SDS011;63338;39.544;2.596;2023-03-31T00:27:59;27.30;;;9.25;;
74808;SDS011;63338;39.544;2.596;2023-03-31T00:30:25;28.08;;;9.02;;
74808;SDS011;63338;39.544;2.596;2023-03-31T00:32:51;36.55;;;8.93;;
74808;SDS011;63338;39.544;2.596;2023-03-31T00:35:17;29.63;;;8.15;;
74808;SDS011;63338;39.544;2.596;2023-03-31T00:37:43;28.67;;;8.52;;
74808;SDS011;63338;39.544;2.596;2023-03-31T00:40:11;21.80;;;7.68;;
74808;SDS011;63338;39.544;2.596;2023-03-31T00:42:42;29.98;;;8.93;;
74808;SDS011;63338;39.544;2.596;2023-03-31T00:47:39;26.50;;;7.85;;
74808;SDS011;63338;39.544;2.596;2023-03-31T00:50:19;21.40;;;7.05;;
74808;SDS011;63338;39.544;2.596;2023-03-31T00:52:52;24.08;;;7.10;;
74808;SDS011;63338;39.544;2.596;2023-03-31T00:55:27;24.73;;;7.80;;
74808;SDS011;63338;39.544;2.596;2023-03-31T00:58:00;22.23;;;6.75;;
74808;SDS011;63338;39.544;2.596;2023-03-31T01:00:28;17.48;;;7.10;;
74808;SDS011;63338;39.544;2.596;2023-03-31T01:02:55;24.13;;;6.55;;
74808;SDS011;63338;39.544;2.596;2023-03-31T01:08:00;20.77;;;6.53;;
74808;SDS011;63338;39.544;2.596;2023-03-31T01:10:29;23.30;;;6.65;;
74808;SDS011;63338;39.544;2.596;2023-03-31T01:13:03;27.30;;;7.70;;
74808;SDS011;63338;39.544;2.596;2023-03-31T01:15:29;30.00;;;8.32;;
74808;SDS011;63338;39.544;2.596;2023-03-31T01:17:55;25.70;;;7.38;;
74808;SDS011;63338;39.544;2.596;2023-03-31T01:20:26;28.13;;;7.20;;
74808;SDS011;63338;39.544;2.596;2023-03-31T01:31:32;32.47;;;8.93;;
74808;SDS011;63338;39.544;2.596;2023-03-31T01:48:37;26.05;;;9.00;;
74808;SDS011;63338;39.544;2.596;2023-03-31T01:59:52;37.50;;;10.65;;
74808;SDS011;63338;39.544;2.596;2023-03-31T02:02:30;51.65;;;12.18;;
74808;SDS011;63338;39.544;2.596;2023-03-31T02:05:17;46.65;;;11.98;;
74808;SDS011;63338;39.544;2.596;2023-03-31T02:07:51;49.92;;;12.48;;
74808;SDS011;63338;39.544;2.596;2023-03-31T02:10:22;41.78;;;12.85;;
74808;SDS011;63338;39.544;2.596;2023-03-31T02:12:51;38.97;;;11.73;;
74808;SDS011;63338;39.544;2.596;2023-03-31T02:15:41;39.40;;;11.80;;
74808;SDS011;63338;39.544;2.596;2023-03-31T02:18:08;38.08;;;11.32;;
74808;SDS011;63338;39.544;2.596;2023-03-31T02:20:40;28.75;;;10.82;;
74808;SDS011;63338;39.544;2.596;2023-03-31T02:23:09;30.90;;;10.20;;
74808;SDS011;63338;39.544;2.596;2023-03-31T02:25:42;32.92;;;10.18;;
74808;SDS011;63338;39.544;2.596;2023-03-31T02:28:15;38.80;;;11.13;;
74808;SDS011;63338;39.544;2.596;2023-03-31T02:30:59;30.88;;;10.55;;
74808;SDS011;63338;39.544;2.596;2023-03-31T02:33:42;24.90;;;9.20;;
74808;SDS011;63338;39.544;2.596;2023-03-31T02:36:08;27.02;;;8.55;;
74808;SDS011;63338;39.544;2.596;2023-03-31T02:38:37;28.05;;;8.52;;
74808;SDS011;63338;39.544;2.596;2023-03-31T02:41:23;30.23;;;8.55;;
74808;SDS011;63338;39.544;2.596;2023-03-31T02:43:50;27.55;;;7.15;;
74808;SDS011;63338;39.544;2.596;2023-03-31T02:46:16;28.80;;;7.25;;
74808;SDS011;63338;39.544;2.596;2023-03-31T02:48:43;32.50;;;8.10;;
74808;SDS011;63338;39.544;2.596;2023-03-31T02:54:14;22.27;;;6.25;;
74808;SDS011;63338;39.544;2.596;2023-03-31T03:08:52;19.85;;;4.80;;
74808;SDS011;63338;39.544;2.596;2023-03-31T03:11:22;19.80;;;4.97;;
74808;SDS011;63338;39.544;2.596;2023-03-31T03:16:29;19.50;;;5.93;;
74808;SDS011;63338;39.544;2.596;2023-03-31T03:19:00;25.48;;;5.05;;
74808;SDS011;63338;39.544;2.596;2023-03-31T03:21:29;18.73;;;4.82;;
74808;SDS011;63338;39.544;2.596;2023-03-31T03:23:56;23.30;;;5.25;;
74808;SDS011;63338;39.544;2.596;2023-03-31T03:26:24;18.63;;;4.50;;
74808;SDS011;63338;39.544;2.596;2023-03-31T03:28:53;31.30;;;5.60;;
74808;SDS011;63338;39.544;2.596;2023-03-31T03:31:20;18.55;;;4.57;;
74808;SDS011;63338;39.544;2.596;2023-03-31T03:33:48;22.02;;;5.60;;
74808;SDS011;63338;39.544;2.596;2023-03-31T03:36:15;19.60;;;5.03;;
74808;SDS011;63338;39.544;2.596;2023-03-31T03:38:41;19.13;;;4.95;;
74808;SDS011;63338;39.544;2.596;2023-03-31T03:41:08;15.73;;;4.25;;
74808;SDS011;63338;39.544;2.596;2023-03-31T03:43:34;21.17;;;4.57;;
74808;SDS011;63338;39.544;2.596;2023-03-31T03:46:00;20.92;;;4.72;;
74808;SDS011;63338;39.544;2.596;2023-03-31T03:48:26;20.65;;;5.15;;
74808;SDS011;63338;39.544;2.596;2023-03-31T03:50:55;18.77;;;4.38;;
74808;SDS011;63338;39.544;2.596;2023-03-31T03:53:29;19.10;;;4.15;;
74808;SDS011;63338;39.544;2.596;2023-03-31T03:55:55;18.70;;;4.25;;
74808;SDS011;63338;39.544;2.596;2023-03-31T03:58:23;18.63;;;4.00;;
74808;SDS011;63338;39.544;2.596;2023-03-31T04:00:52;29.73;;;5.75;;
74808;SDS011;63338;39.544;2.596;2023-03-31T04:03:18;20.02;;;5.57;;
74808;SDS011;63338;39.544;2.596;2023-03-31T04:05:44;25.80;;;6.32;;
74808;SDS011;63338;39.544;2.596;2023-03-31T04:08:14;28.80;;;7.75;;
74808;SDS011;63338;39.544;2.596;2023-03-31T04:10:44;25.02;;;7.35;;
74808;SDS011;63338;39.544;2.596;2023-03-31T04:13:14;24.40;;;4.78;;
74808;SDS011;63338;39.544;2.596;2023-03-31T04:15:41;19.63;;;3.72;;
74808;SDS011;63338;39.544;2.596;2023-03-31T04:18:07;22.05;;;4.53;;
74808;SDS011;63338;39.544;2.596;2023-03-31T04:20:35;18.80;;;4.70;;
74808;SDS011;63338;39.544;2.596;2023-03-31T04:23:05;20.95;;;4.05;;
74808;SDS011;63338;39.544;2.596;2023-03-31T04:25:33;16.88;;;3.55;;
74808;SDS011;63338;39.544;2.596;2023-03-31T04:28:03;14.98;;;2.67;;
74808;SDS011;63338;39.544;2.596;2023-03-31T04:30:31;17.83;;;3.67;;
74808;SDS011;63338;39.544;2.596;2023-03-31T04:32:58;20.20;;;5.25;;
74808;SDS011;63338;39.544;2.596;2023-03-31T04:35:27;22.63;;;6.03;;
74808;SDS011;63338;39.544;2.596;2023-03-31T04:38:06;25.23;;;5.32;;
74808;SDS011;63338;39.544;2.596;2023-03-31T04:40:33;29.40;;;6.05;;
74808;SDS011;63338;39.544;2.596;2023-03-31T04:42:59;27.27;;;6.07;;
74808;SDS011;63338;39.544;2.596;2023-03-31T04:45:26;22.70;;;4.90;;
74808;SDS011;63338;39.544;2.596;2023-03-31T04:47:52;25.42;;;5.55;;
74808;SDS011;63338;39.544;2.596;2023-03-31T04:50:18;15.77;;;5.00;;
74808;SDS011;63338;39.544;2.596;2023-03-31T04:52:44;21.58;;;5.00;;
74808;SDS011;63338;39.544;2.596;2023-03-31T04:55:10;19.63;;;4.72;;
74808;SDS011;63338;39.544;2.596;2023-03-31T04:57:36;19.63;;;5.00;;
74808;SDS011;63338;39.544;2.596;2023-03-31T05:00:03;17.45;;;4.65;;
74808;SDS011;63338;39.544;2.596;2023-03-31T05:02:32;25.23;;;4.90;;
74808;SDS011;63338;39.544;2.596;2023-03-31T05:04:59;16.67;;;4.97;;
74808;SDS011;63338;39.544;2.596;2023-03-31T05:07:25;18.58;;;5.18;;
74808;SDS011;63338;39.544;2.596;2023-03-31T05:09:51;20.23;;;4.78;;
74808;SDS011;63338;39.544;2.596;2023-03-31T05:12:17;14.90;;;4.57;;
74808;SDS011;63338;39.544;2.596;2023-03-31T05:14:43;26.13;;;5.78;;
74808;SDS011;63338;39.544;2.596;2023-03-31T05:17:09;17.65;;;4.68;;
74808;SDS011;63338;39.544;2.596;2023-03-31T05:19:38;19.08;;;5.30;;
74808;SDS011;63338;39.544;2.596;2023-03-31T05:22:04;16.63;;;5.00;;
74808;SDS011;63338;39.544;2.596;2023-03-31T05:24:30;19.85;;;4.47;;
74808;SDS011;63338;39.544;2.596;2023-03-31T05:26:56;19.25;;;4.82;;
74808;SDS011;63338;39.544;2.596;2023-03-31T05:29:23;18.50;;;4.75;;
74808;SDS011;63338;39.544;2.596;2023-03-31T05:31:49;19.75;;;4.65;;
74808;SDS011;63338;39.544;2.596;2023-03-31T05:34:15;16.65;;;5.03;;
74808;SDS011;63338;39.544;2.596;2023-03-31T05:36:41;21.90;;;4.95;;
74808;SDS011;63338;39.544;2.596;2023-03-31T05:39:08;15.70;;;4.50;;
74808;SDS011;63338;39.544;2.596;2023-03-31T05:41:35;17.27;;;4.82;;
74808;SDS011;63338;39.544;2.596;2023-03-31T05:44:01;19.90;;;5.18;;
74808;SDS011;63338;39.544;2.596;2023-03-31T05:46:27;25.85;;;5.60;;
74808;SDS011;63338;39.544;2.596;2023-03-31T05:48:53;21.85;;;5.03;;
74808;SDS011;63338;39.544;2.596;2023-03-31T05:51:20;14.50;;;4.85;;
74808;SDS011;63338;39.544;2.596;2023-03-31T05:53:47;16.33;;;6.00;;
74808;SDS011;63338;39.544;2.596;2023-03-31T05:56:13;21.73;;;6.45;;
74808;SDS011;63338;39.544;2.596;2023-03-31T05:58:39;13.55;;;5.05;;
74808;SDS011;63338;39.544;2.596;2023-03-31T06:01:07;15.52;;;5.38;;
74808;SDS011;63338;39.544;2.596;2023-03-31T06:03:35;22.30;;;6.13;;
74808;SDS011;63338;39.544;2.596;2023-03-31T06:06:03;18.40;;;5.45;;
74808;SDS011;63338;39.544;2.596;2023-03-31T06:08:30;19.95;;;5.13;;
74808;SDS011;63338;39.544;2.596;2023-03-31T06:10:57;20.20;;;5.72;;
74808;SDS011;63338;39.544;2.596;2023-03-31T06:13:23;18.20;;;4.32;;
74808;SDS011;63338;39.544;2.596;2023-03-31T06:15:55;22.52;;;5.18;;
74808;SDS011;63338;39.544;2.596;2023-03-31T06:18:23;19.38;;;4.53;;
74808;SDS011;63338;39.544;2.596;2023-03-31T06:20:53;16.75;;;4.32;;
74808;SDS011;63338;39.544;2.596;2023-03-31T06:23:19;21.40;;;4.78;;
74808;SDS011;63338;39.544;2.596;2023-03-31T06:25:48;21.17;;;6.00;;
74808;SDS011;63338;39.544;2.596;2023-03-31T06:28:14;19.98;;;4.70;;
74808;SDS011;63338;39.544;2.596;2023-03-31T06:30:40;17.17;;;4.68;;
74808;SDS011;63338;39.544;2.596;2023-03-31T06:33:06;21.85;;;5.40;;
74808;SDS011;63338;39.544;2.596;2023-03-31T06:35:33;23.30;;;5.68;;
74808;SDS011;63338;39.544;2.596;2023-03-31T06:38:02;23.30;;;5.13;;
74808;SDS011;63338;39.544;2.596;2023-03-31T06:40:29;14.30;;;4.15;;
74808;SDS011;63338;39.544;2.596;2023-03-31T06:42:55;19.77;;;5.07;;
74808;SDS011;63338;39.544;2.596;2023-03-31T06:45:21;23.10;;;4.90;;
74808;SDS011;63338;39.544;2.596;2023-03-31T06:47:48;17.33;;;4.75;;
74808;SDS011;63338;39.544;2.596;2023-03-31T06:50:14;19.63;;;4.43;;
74808;SDS011;63338;39.544;2.596;2023-03-31T06:52:43;15.73;;;4.32;;
74808;SDS011;63338;39.544;2.596;2023-03-31T06:55:09;16.92;;;4.57;;
74808;SDS011;63338;39.544;2.596;2023-03-31T06:57:37;20.17;;;5.45;;
74808;SDS011;63338;39.544;2.596;2023-03-31T07:00:03;19.85;;;4.82;;
74808;SDS011;63338;39.544;2.596;2023-03-31T07:02:32;18.27;;;5.50;;
74808;SDS011;63338;39.544;2.596;2023-03-31T07:04:58;41.88;;;18.80;;
74808;SDS011;63338;39.544;2.596;2023-03-31T07:07:24;23.83;;;7.10;;
74808;SDS011;63338;39.544;2.596;2023-03-31T07:09:50;27.23;;;6.30;;
74808;SDS011;63338;39.544;2.596;2023-03-31T07:12:16;24.50;;;5.53;;
74808;SDS011;63338;39.544;2.596;2023-03-31T07:14:42;29.38;;;5.55;;
74808;SDS011;63338;39.544;2.596;2023-03-31T07:17:09;18.13;;;4.82;;
74808;SDS011;63338;39.544;2.596;2023-03-31T07:19:35;24.52;;;6.20;;
74808;SDS011;63338;39.544;2.596;2023-03-31T07:22:02;25.52;;;7.00;;
74808;SDS011;63338;39.544;2.596;2023-03-31T07:24:30;26.67;;;6.35;;
74808;SDS011;63338;39.544;2.596;2023-03-31T07:26:56;18.67;;;5.30;;
74808;SDS011;63338;39.544;2.596;2023-03-31T07:29:22;72.57;;;40.55;;
74808;SDS011;63338;39.544;2.596;2023-03-31T07:31:52;23.48;;;7.47;;
74808;SDS011;63338;39.544;2.596;2023-03-31T07:34:18;19.88;;;4.70;;
74808;SDS011;63338;39.544;2.596;2023-03-31T07:36:48;19.88;;;5.10;;
74808;SDS011;63338;39.544;2.596;2023-03-31T07:39:13;20.63;;;4.75;;
74808;SDS011;63338;39.544;2.596;2023-03-31T07:41:40;17.40;;;4.45;;
74808;SDS011;63338;39.544;2.596;2023-03-31T07:44:06;14.43;;;3.40;;
74808;SDS011;63338;39.544;2.596;2023-03-31T07:46:32;16.65;;;3.20;;
74808;SDS011;63338;39.544;2.596;2023-03-31T07:48:58;15.02;;;3.85;;
74808;SDS011;63338;39.544;2.596;2023-03-31T07:51:27;29.40;;;4.55;;
74808;SDS011;63338;39.544;2.596;2023-03-31T07:53:53;19.80;;;4.78;;
74808;SDS011;63338;39.544;2.596;2023-03-31T07:56:20;16.17;;;4.22;;
74808;SDS011;63338;39.544;2.596;2023-03-31T07:58:48;21.58;;;4.53;;
74808;SDS011;63338;39.544;2.596;2023-03-31T08:01:17;21.23;;;5.00;;
74808;SDS011;63338;39.544;2.596;2023-03-31T08:03:45;14.38;;;3.78;;
74808;SDS011;63338;39.544;2.596;2023-03-31T08:06:19;25.77;;;5.28;;
74808;SDS011;63338;39.544;2.596;2023-03-31T08:08:47;17.77;;;4.55;;
74808;SDS011;63338;39.544;2.596;2023-03-31T08:11:17;22.42;;;4.43;;
74808;SDS011;63338;39.544;2.596;2023-03-31T08:13:45;18.05;;;3.90;;
74808;SDS011;63338;39.544;2.596;2023-03-31T08:16:12;13.07;;;3.50;;
74808;SDS011;63338;39.544;2.596;2023-03-31T08:18:38;19.40;;;3.88;;
74808;SDS011;63338;39.544;2.596;2023-03-31T08:21:05;14.52;;;3.60;;
74808;SDS011;63338;39.544;2.596;2023-03-31T08:23:34;15.10;;;3.85;;
74808;SDS011;63338;39.544;2.596;2023-03-31T08:26:11;16.90;;;3.33;;
74808;SDS011;63338;39.544;2.596;2023-03-31T08:28:41;16.95;;;3.88;;
74808;SDS011;63338;39.544;2.596;2023-03-31T08:31:07;20.33;;;4.28;;
74808;SDS011;63338;39.544;2.596;2023-03-31T08:33:37;18.40;;;3.75;;
74808;SDS011;63338;39.544;2.596;2023-03-31T08:36:03;16.17;;;4.22;;
74808;SDS011;63338;39.544;2.596;2023-03-31T08:38:36;23.48;;;4.65;;
74808;SDS011;63338;39.544;2.596;2023-03-31T08:43:50;22.55;;;4.65;;
74808;SDS011;63338;39.544;2.596;2023-03-31T08:46:21;20.45;;;3.92;;
74808;SDS011;63338;39.544;2.596;2023-03-31T08:48:48;17.27;;;4.45;;
74808;SDS011;63338;39.544;2.596;2023-03-31T08:51:33;16.40;;;4.35;;
74808;SDS011;63338;39.544;2.596;2023-03-31T08:54:06;18.80;;;4.00;;
74808;SDS011;63338;39.544;2.596;2023-03-31T08:56:55;14.68;;;3.83;;
74808;SDS011;63338;39.544;2.596;2023-03-31T08:59:33;24.02;;;6.72;;
74808;SDS011;63338;39.544;2.596;2023-03-31T09:18:47;36.60;;;4.63;;
74808;SDS011;63338;39.544;2.596;2023-03-31T09:24:02;10.05;;;2.17;;
74808;SDS011;63338;39.544;2.596;2023-03-31T09:29:18;7.72;;;1.77;;
74808;SDS011;63338;39.544;2.596;2023-03-31T09:31:54;10.85;;;1.65;;
74808;SDS011;63338;39.544;2.596;2023-03-31T09:34:27;8.45;;;1.50;;
74808;SDS011;63338;39.544;2.596;2023-03-31T09:36:58;10.23;;;2.00;;
74808;SDS011;63338;39.544;2.596;2023-03-31T09:39:27;6.15;;;1.40;;
74808;SDS011;63338;39.544;2.596;2023-03-31T09:41:53;5.80;;;1.50;;
74808;SDS011;63338;39.544;2.596;2023-03-31T09:44:35;11.57;;;1.42;;
74808;SDS011;63338;39.544;2.596;2023-03-31T09:47:24;8.43;;;1.60;;
74808;SDS011;63338;39.544;2.596;2023-03-31T09:49:58;7.75;;;1.45;;
74808;SDS011;63338;39.544;2.596;2023-03-31T09:52:43;6.63;;;1.52;;
74808;SDS011;63338;39.544;2.596;2023-03-31T09:55:46;12.73;;;1.77;;
74808;SDS011;63338;39.544;2.596;2023-03-31T09:58:17;13.30;;;2.20;;
74808;SDS011;63338;39.544;2.596;2023-03-31T10:06:23;11.40;;;2.22;;
74808;SDS011;63338;39.544;2.596;2023-03-31T10:11:22;8.75;;;2.03;;
74808;SDS011;63338;39.544;2.596;2023-03-31T10:13:52;9.75;;;1.83;;
74808;SDS011;63338;39.544;2.596;2023-03-31T10:22:14;8.63;;;1.58;;
74808;SDS011;63338;39.544;2.596;2023-03-31T10:25:23;11.45;;;1.98;;
74808;SDS011;63338;39.544;2.596;2023-03-31T10:28:53;10.60;;;1.88;;
74808;SDS011;63338;39.544;2.596;2023-03-31T10:31:33;11.52;;;1.95;;
74808;SDS011;63338;39.544;2.596;2023-03-31T10:34:08;11.50;;;1.70;;
74808;SDS011;63338;39.544;2.596;2023-03-31T10:36:47;13.50;;;2.13;;
74808;SDS011;63338;39.544;2.596;2023-03-31T10:39:16;7.65;;;1.90;;
74808;SDS011;63338;39.544;2.596;2023-03-31T10:41:49;9.38;;;2.15;;
74808;SDS011;63338;39.544;2.596;2023-03-31T10:44:33;11.00;;;2.03;;
74808;SDS011;63338;39.544;2.596;2023-03-31T10:47:06;11.60;;;1.88;;
74808;SDS011;63338;39.544;2.596;2023-03-31T10:49:47;11.90;;;2.80;;
74808;SDS011;63338;39.544;2.596;2023-03-31T10:52:18;10.82;;;2.88;;
74808;SDS011;63338;39.544;2.596;2023-03-31T10:54:46;12.35;;;2.90;;
74808;SDS011;63338;39.544;2.596;2023-03-31T10:57:22;14.52;;;2.38;;
74808;SDS011;63338;39.544;2.596;2023-03-31T11:00:13;10.02;;;2.03;;
74808;SDS011;63338;39.544;2.596;2023-03-31T11:03:07;9.93;;;2.03;;
74808;SDS011;63338;39.544;2.596;2023-03-31T11:11:47;17.25;;;2.10;;
74808;SDS011;63338;39.544;2.596;2023-03-31T11:30:13;10.23;;;3.70;;
74808;SDS011;63338;39.544;2.596;2023-03-31T11:41:19;10.68;;;3.53;;
74808;SDS011;63338;39.544;2.596;2023-03-31T11:43:59;16.25;;;3.10;;
74808;SDS011;63338;39.544;2.596;2023-03-31T11:49:29;17.27;;;2.42;;
74808;SDS011;63338;39.544;2.596;2023-03-31T11:52:16;14.20;;;1.73;;
74808;SDS011;63338;39.544;2.596;2023-03-31T11:57:20;6.22;;;1.30;;
74808;SDS011;63338;39.544;2.596;2023-03-31T11:59:54;8.27;;;1.58;;
74808;SDS011;63338;39.544;2.596;2023-03-31T12:02:43;13.07;;;1.70;;
74808;SDS011;63338;39.544;2.596;2023-03-31T12:05:32;10.52;;;1.80;;
74808;SDS011;63338;39.544;2.596;2023-03-31T12:10:36;9.10;;;2.00;;
74808;SDS011;63338;39.544;2.596;2023-03-31T12:15:59;12.25;;;2.63;;
74808;SDS011;63338;39.544;2.596;2023-03-31T12:18:44;15.15;;;2.75;;
74808;SDS011;63338;39.544;2.596;2023-03-31T12:21:21;13.70;;;1.80;;
74808;SDS011;63338;39.544;2.596;2023-03-31T12:23:49;15.60;;;2.70;;
74808;SDS011;63338;39.544;2.596;2023-03-31T12:28:59;12.70;;;2.50;;
74808;SDS011;63338;39.544;2.596;2023-03-31T12:31:32;12.80;;;1.80;;
74808;SDS011;63338;39.544;2.596;2023-03-31T12:34:02;17.73;;;2.03;;
74808;SDS011;63338;39.544;2.596;2023-03-31T12:36:52;14.95;;;1.90;;
74808;SDS011;63338;39.544;2.596;2023-03-31T12:44:59;12.05;;;2.58;;
74808;SDS011;63338;39.544;2.596;2023-03-31T12:53:02;14.27;;;2.22;;
74808;SDS011;63338;39.544;2.596;2023-03-31T12:55:39;12.38;;;2.30;;
74808;SDS011;63338;39.544;2.596;2023-03-31T13:01:08;11.77;;;2.00;;
74808;SDS011;63338;39.544;2.596;2023-03-31T13:11:40;15.25;;;2.63;;
74808;SDS011;63338;39.544;2.596;2023-03-31T13:14:14;14.48;;;2.70;;
74808;SDS011;63338;39.544;2.596;2023-03-31T13:16:52;12.45;;;2.30;;
74808;SDS011;63338;39.544;2.596;2023-03-31T13:19:52;12.55;;;1.92;;
74808;SDS011;63338;39.544;2.596;2023-03-31T13:22:39;17.55;;;2.67;;
74808;SDS011;63338;39.544;2.596;2023-03-31T13:30:43;13.10;;;1.80;;
74808;SDS011;63338;39.544;2.596;2023-03-31T13:35:40;13.15;;;2.40;;
74808;SDS011;63338;39.544;2.596;2023-03-31T13:48:59;14.18;;;2.22;;
74808;SDS011;63338;39.544;2.596;2023-03-31T13:51:42;15.75;;;2.55;;
74808;SDS011;63338;39.544;2.596;2023-03-31T13:54:29;14.80;;;2.42;;
74808;SDS011;63338;39.544;2.596;2023-03-31T14:00:13;17.17;;;2.40;;
74808;SDS011;63338;39.544;2.596;2023-03-31T14:02:53;17.17;;;2.35;;
74808;SDS011;63338;39.544;2.596;2023-03-31T14:08:02;17.55;;;2.47;;
74808;SDS011;63338;39.544;2.596;2023-03-31T14:10:40;17.52;;;3.13;;
74808;SDS011;63338;39.544;2.596;2023-03-31T14:15:51;16.05;;;2.40;;
74808;SDS011;63338;39.544;2.596;2023-03-31T14:18:25;17.02;;;2.13;;
74808;SDS011;63338;39.544;2.596;2023-03-31T14:21:07;17.48;;;2.70;;
74808;SDS011;63338;39.544;2.596;2023-03-31T14:29:52;21.45;;;2.95;;
74808;SDS011;63338;39.544;2.596;2023-03-31T14:35:36;13.90;;;2.75;;
74808;SDS011;63338;39.544;2.596;2023-03-31T14:38:12;12.80;;;2.65;;
74808;SDS011;63338;39.544;2.596;2023-03-31T14:40:48;17.88;;;2.53;;
74808;SDS011;63338;39.544;2.596;2023-03-31T14:43:22;16.67;;;2.55;;
74808;SDS011;63338;39.544;2.596;2023-03-31T14:45:59;13.40;;;1.67;;
74808;SDS011;63338;39.544;2.596;2023-03-31T14:48:27;8.98;;;1.90;;
74808;SDS011;63338;39.544;2.596;2023-03-31T14:50:57;13.60;;;1.90;;
74808;SDS011;63338;39.544;2.596;2023-03-31T14:53:26;11.48;;;1.58;;
74808;SDS011;63338;39.544;2.596;2023-03-31T14:55:56;13.27;;;1.83;;
74808;SDS011;63338;39.544;2.596;2023-03-31T14:58:37;10.65;;;2.20;;
74808;SDS011;63338;39.544;2.596;2023-03-31T15:01:08;12.48;;;2.25;;
74808;SDS011;63338;39.544;2.596;2023-03-31T15:03:45;14.65;;;1.83;;
74808;SDS011;63338;39.544;2.596;2023-03-31T15:06:12;8.30;;;1.40;;
74808;SDS011;63338;39.544;2.596;2023-03-31T15:08:40;11.27;;;2.10;;
74808;SDS011;63338;39.544;2.596;2023-03-31T15:11:13;7.97;;;1.10;;
74808;SDS011;63338;39.544;2.596;2023-03-31T15:13:44;7.50;;;1.50;;
74808;SDS011;63338;39.544;2.596;2023-03-31T15:19:13;10.90;;;1.60;;
74808;SDS011;63338;39.544;2.596;2023-03-31T15:21:54;11.98;;;1.92;;
74808;SDS011;63338;39.544;2.596;2023-03-31T15:24:22;10.98;;;1.77;;
74808;SDS011;63338;39.544;2.596;2023-03-31T15:29:42;15.27;;;1.58;;
74808;SDS011;63338;39.544;2.596;2023-03-31T15:32:13;13.07;;;2.22;;
74808;SDS011;63338;39.544;2.596;2023-03-31T15:35:03;14.13;;;2.08;;
74808;SDS011;63338;39.544;2.596;2023-03-31T15:37:40;16.60;;;2.22;;
74808;SDS011;63338;39.544;2.596;2023-03-31T15:40:16;12.35;;;1.77;;
74808;SDS011;63338;39.544;2.596;2023-03-31T15:45:44;9.95;;;1.80;;
74808;SDS011;63338;39.544;2.596;2023-03-31T15:48:54;11.00;;;1.73;;
74808;SDS011;63338;39.544;2.596;2023-03-31T15:53:48;10.50;;;1.27;;
74808;SDS011;63338;39.544;2.596;2023-03-31T15:56:27;7.75;;;1.50;;
74808;SDS011;63338;39.544;2.596;2023-03-31T15:59:04;9.73;;;1.40;;
74808;SDS011;63338;39.544;2.596;2023-03-31T16:01:47;17.63;;;1.52;;
74808;SDS011;63338;39.544;2.596;2023-03-31T16:04:17;11.70;;;1.60;;
74808;SDS011;63338;39.544;2.596;2023-03-31T16:12:02;13.27;;;1.60;;
74808;SDS011;63338;39.544;2.596;2023-03-31T16:14:42;12.48;;;1.45;;
74808;SDS011;63338;39.544;2.596;2023-03-31T16:17:24;6.38;;;1.50;;
74808;SDS011;63338;39.544;2.596;2023-03-31T16:20:04;10.38;;;1.42;;
74808;SDS011;63338;39.544;2.596;2023-03-31T16:22:39;9.82;;;1.02;;
74808;SDS011;63338;39.544;2.596;2023-03-31T16:25:10;13.30;;;1.30;;
74808;SDS011;63338;39.544;2.596;2023-03-31T16:27:43;8.98;;;1.40;;
74808;SDS011;63338;39.544;2.596;2023-03-31T16:32:56;7.90;;;1.38;;
74808;SDS011;63338;39.544;2.596;2023-03-31T16:35:30;9.70;;;1.33;;
74808;SDS011;63338;39.544;2.596;2023-03-31T16:38:23;9.00;;;1.30;;
74808;SDS011;63338;39.544;2.596;2023-03-31T16:40:51;10.70;;;1.30;;
74808;SDS011;63338;39.544;2.596;2023-03-31T16:43:21;9.05;;;1.40;;
74808;SDS011;63338;39.544;2.596;2023-03-31T16:45:55;8.20;;;1.60;;
74808;SDS011;63338;39.544;2.596;2023-03-31T16:48:23;11.63;;;1.30;;
74808;SDS011;63338;39.544;2.596;2023-03-31T16:50:52;10.25;;;1.60;;
74808;SDS011;63338;39.544;2.596;2023-03-31T16:53:21;8.60;;;1.45;;
74808;SDS011;63338;39.544;2.596;2023-03-31T16:55:49;9.45;;;1.23;;
74808;SDS011;63338;39.544;2.596;2023-03-31T16:58:15;9.73;;;1.30;;
74808;SDS011;63338;39.544;2.596;2023-03-31T17:00:42;8.68;;;1.20;;
74808;SDS011;63338;39.544;2.596;2023-03-31T17:03:10;8.23;;;1.30;;
74808;SDS011;63338;39.544;2.596;2023-03-31T17:05:38;7.43;;;1.50;;
74808;SDS011;63338;39.544;2.596;2023-03-31T17:08:06;11.45;;;1.83;;
74808;SDS011;63338;39.544;2.596;2023-03-31T17:10:34;6.63;;;1.30;;
74808;SDS011;63338;39.544;2.596;2023-03-31T17:13:01;10.98;;;1.30;;
74808;SDS011;63338;39.544;2.596;2023-03-31T17:15:28;12.60;;;0.95;;
74808;SDS011;63338;39.544;2.596;2023-03-31T17:17:55;20.70;;;1.95;;
74808;SDS011;63338;39.544;2.596;2023-03-31T17:20:26;9.50;;;1.20;;
74808;SDS011;63338;39.544;2.596;2023-03-31T17:22:52;11.40;;;1.15;;
74808;SDS011;63338;39.544;2.596;2023-03-31T17:25:18;6.47;;;1.20;;
74808;SDS011;63338;39.544;2.596;2023-03-31T17:27:47;6.88;;;1.70;;
74808;SDS011;63338;39.544;2.596;2023-03-31T17:30:13;8.73;;;1.80;;
74808;SDS011;63338;39.544;2.596;2023-03-31T17:32:39;6.50;;;1.38;;
74808;SDS011;63338;39.544;2.596;2023-03-31T17:35:06;5.22;;;1.35;;
74808;SDS011;63338;39.544;2.596;2023-03-31T17:37:32;5.88;;;1.38;;
74808;SDS011;63338;39.544;2.596;2023-03-31T17:39:59;9.40;;;1.65;;
74808;SDS011;63338;39.544;2.596;2023-03-31T17:42:25;7.32;;;1.40;;
74808;SDS011;63338;39.544;2.596;2023-03-31T17:44:51;6.63;;;1.35;;
74808;SDS011;63338;39.544;2.596;2023-03-31T17:47:18;9.38;;;1.60;;
74808;SDS011;63338;39.544;2.596;2023-03-31T17:49:45;9.55;;;1.50;;
74808;SDS011;63338;39.544;2.596;2023-03-31T17:52:11;6.80;;;1.40;;
74808;SDS011;63338;39.544;2.596;2023-03-31T17:54:40;7.30;;;1.23;;
74808;SDS011;63338;39.544;2.596;2023-03-31T17:57:06;7.22;;;1.35;;
74808;SDS011;63338;39.544;2.596;2023-03-31T17:59:33;7.43;;;1.33;;
74808;SDS011;63338;39.544;2.596;2023-03-31T18:01:59;8.88;;;1.52;;
74808;SDS011;63338;39.544;2.596;2023-03-31T18:04:25;10.13;;;1.63;;
74808;SDS011;63338;39.544;2.596;2023-03-31T18:06:51;6.57;;;1.05;;
74808;SDS011;63338;39.544;2.596;2023-03-31T18:09:18;10.85;;;1.65;;
74808;SDS011;63338;39.544;2.596;2023-03-31T18:14:15;10.15;;;1.50;;
74808;SDS011;63338;39.544;2.596;2023-03-31T18:16:54;11.38;;;2.22;;
74808;SDS011;63338;39.544;2.596;2023-03-31T18:20:16;5.32;;;1.35;;
74808;SDS011;63338;39.544;2.596;2023-03-31T18:22:44;7.93;;;1.35;;
74808;SDS011;63338;39.544;2.596;2023-03-31T18:25:10;7.50;;;1.08;;
74808;SDS011;63338;39.544;2.596;2023-03-31T18:31:21;10.07;;;3.33;;
74808;SDS011;63338;39.544;2.596;2023-03-31T18:33:51;11.18;;;2.63;;
74808;SDS011;63338;39.544;2.596;2023-03-31T18:36:19;12.35;;;2.95;;
74808;SDS011;63338;39.544;2.596;2023-03-31T18:38:47;10.00;;;2.90;;
74808;SDS011;63338;39.544;2.596;2023-03-31T18:43:43;16.88;;;3.40;;
74808;SDS011;63338;39.544;2.596;2023-03-31T18:46:12;10.65;;;2.50;;